Time;durP1;ratioP1;P1;durP2;ratioP2;P2;SDS_P1;SDS_P2;PMS_P1;PMS_P2;Temp;Humidity;BMP_temperature;BMP_pressure;BME280_temperature;BME280_humidity;BME280_pressure;Samples;Min_cycle;Max_cycle;Signal;HPM_P1;HPM_P2
2022/03/07 00:00:49;;;;;;;3.80;1.58;;;;;;;0.48;61.47;101649.06;5085094;28;20024;-64
2022/03/07 00:03:15;;;;;;;3.25;1.52;;;;;;;0.50;61.45;101656.81;5085305;28;20055;-63
2022/03/07 00:05:40;;;;;;;2.63;1.55;;;;;;;0.48;61.54;101656.72;5084092;28;20060;-63
2022/03/07 00:08:06;;;;;;;4.03;1.40;;;;;;;0.49;61.83;101657.63;5085327;28;20107;-63
2022/03/07 00:10:31;;;;;;;2.25;1.25;;;;;;;0.35;61.78;101628.78;5085016;28;20365;-63
2022/03/07 00:12:56;;;;;;;4.93;1.52;;;;;;;0.51;62.12;101660.25;5083628;28;20028;-63
2022/03/07 00:15:21;;;;;;;4.32;1.48;;;;;;;0.48;62.07;101659.28;5084922;28;20020;-63
2022/03/07 00:17:47;;;;;;;3.97;1.60;;;;;;;0.49;62.30;101663.63;5085414;28;20032;-63
2022/03/07 00:20:13;;;;;;;3.53;1.40;;;;;;;0.49;62.42;101649.94;5085054;28;20488;-63
2022/03/07 00:22:39;;;;;;;2.80;1.10;;;;;;;0.47;62.50;101644.75;5083887;28;20025;-63
2022/03/07 00:25:05;;;;;;;3.10;1.38;;;;;;;0.47;62.50;101648.97;5084950;28;20032;-63
2022/03/07 00:27:30;;;;;;;5.40;1.52;;;;;;;0.45;62.69;101651.44;5085304;28;20020;-63
2022/03/07 00:29:56;;;;;;;7.85;2.90;;;;;;;0.45;62.82;101646.34;5084776;28;20383;-63
2022/03/07 00:32:21;;;;;;;4.38;1.60;;;;;;;0.46;62.98;101647.22;5084739;28;20035;-63
2022/03/07 00:34:46;;;;;;;3.40;1.60;;;;;;;0.46;63.23;101645.53;5084706;28;20074;-63
2022/03/07 00:37:13;;;;;;;8.07;1.50;;;;;;;0.53;63.41;101653.56;5084683;28;20028;-63
2022/03/07 00:39:38;;;;;;;3.40;1.48;;;;;;;0.53;63.44;101649.31;5084501;28;20075;-63
2022/03/07 00:42:04;;;;;;;6.05;1.60;;;;;;;0.52;63.38;101646.66;5084602;28;20028;-63
2022/03/07 00:44:29;;;;;;;8.07;2.17;;;;;;;0.51;63.46;101647.47;5084044;28;20072;-63
2022/03/07 00:46:55;;;;;;;4.28;1.75;;;;;;;0.47;63.64;101648.97;5084715;28;20468;-62
2022/03/07 00:49:20;;;;;;;1.95;1.17;;;;;;;0.46;63.91;101655.75;5084457;28;20468;-63
2022/03/07 00:51:46;;;;;;;4.50;1.60;;;;;;;0.43;64.25;101667.50;5084679;28;20080;-63
2022/03/07 00:54:11;;;;;;;7.50;1.83;;;;;;;0.40;64.20;101654.56;5083239;28;20115;-63
2022/03/07 00:56:36;;;;;;;5.50;1.40;;;;;;;0.41;64.18;101664.88;5084284;28;20016;-63
2022/03/07 00:59:02;;;;;;;3.97;1.42;;;;;;;0.40;64.69;101664.78;5084306;28;20082;-63
2022/03/07 01:01:27;;;;;;;4.10;1.65;;;;;;;0.36;65.04;101662.06;5084257;28;20082;-62
2022/03/07 01:03:53;;;;;;;5.50;1.70;;;;;;;0.39;64.88;101650.25;5084591;28;20047;-63
2022/03/07 01:06:18;;;;;;;4.70;1.58;;;;;;;0.38;65.11;101659.59;5084136;28;20161;-62
2022/03/07 01:08:43;;;;;;;7.50;1.80;;;;;;;0.39;65.22;101655.34;5084585;28;20039;-62
2022/03/07 01:11:09;;;;;;;5.88;1.70;;;;;;;0.36;65.59;101666.28;5084625;28;20039;-62
2022/03/07 01:13:35;;;;;;;5.20;1.80;;;;;;;0.39;65.61;101671.56;5084139;28;20032;-63
2022/03/07 01:16:00;;;;;;;5.43;1.48;;;;;;;0.33;65.75;101667.03;5085797;28;20025;-63
2022/03/07 01:18:25;;;;;;;12.18;1.65;;;;;;;0.38;65.73;101672.38;5087860;28;20028;-63
2022/03/07 01:20:51;;;;;;;6.00;1.70;;;;;;;0.40;65.94;101668.19;5087560;28;20034;-62
2022/03/07 01:23:17;;;;;;;2.40;1.42;;;;;;;0.39;66.09;101680.91;5087980;28;20055;-62
2022/03/07 01:25:42;;;;;;;5.82;1.65;;;;;;;0.38;66.21;101674.03;5087784;28;20024;-62
2022/03/07 01:28:08;;;;;;;3.15;1.50;;;;;;;0.43;66.45;101678.59;5087936;28;20024;-62
2022/03/07 01:30:33;;;;;;;3.60;1.60;;;;;;;0.45;66.51;101674.44;5088071;28;20025;-62
2022/03/07 01:32:59;;;;;;;4.90;1.40;;;;;;;0.46;66.63;101668.53;5088124;28;20082;-62
2022/03/07 01:35:25;;;;;;;7.75;1.65;;;;;;;0.45;66.59;101677.00;5087403;28;20403;-62
2022/03/07 01:37:51;;;;;;;10.50;1.67;;;;;;;0.43;66.72;101681.16;5087890;28;20099;-63
2022/03/07 01:40:16;;;;;;;3.33;1.60;;;;;;;0.40;66.69;101669.91;5087324;28;20028;-62
2022/03/07 01:42:42;;;;;;;3.50;1.65;;;;;;;0.38;66.91;101664.72;5087263;28;20031;-62
2022/03/07 01:45:15;;;;;;;5.45;1.75;;;;;;;0.38;67.08;101659.59;5087474;28;20056;-62
2022/03/07 01:47:40;;;;;;;5.70;1.50;;;;;;;0.40;67.20;101668.19;5087684;28;20029;-62
2022/03/07 01:50:08;;;;;;;6.72;1.77;;;;;;;0.38;67.38;101654.50;5087317;28;20048;-62
2022/03/07 01:52:37;;;;;;;6.22;1.50;;;;;;;0.33;67.98;101659.34;5087589;28;20036;-62
2022/03/07 01:55:04;;;;;;;5.78;1.80;;;;;;;0.26;68.06;101649.59;5087433;28;20032;-63
2022/03/07 01:57:30;;;;;;;7.97;1.58;;;;;;;0.30;68.05;101655.75;5087243;28;20020;-62
2022/03/07 01:59:56;;;;;;;6.68;1.92;;;;;;;0.32;68.17;101649.06;5087177;28;20081;-62
2022/03/07 02:02:22;;;;;;;7.30;1.63;;;;;;;0.33;68.22;101645.69;5087229;28;20035;-62
2022/03/07 02:04:47;;;;;;;4.80;1.52;;;;;;;0.30;68.79;101645.53;5086713;28;20099;-62
2022/03/07 02:07:13;;;;;;;5.15;1.60;;;;;;;0.29;69.66;101631.00;5086767;28;20028;-62
2022/03/07 02:09:38;;;;;;;3.92;1.70;;;;;;;0.30;69.85;101638.75;5086954;28;20021;-62
2022/03/07 02:12:03;;;;;;;5.47;1.60;;;;;;;0.26;70.39;101618.94;5086798;28;20040;-62
2022/03/07 02:14:30;;;;;;;3.40;1.65;;;;;;;0.30;70.92;101627.66;5086575;28;20035;-62
2022/03/07 02:16:55;;;;;;;5.57;1.77;;;;;;;0.37;70.02;101629.72;5087192;28;20100;-62
2022/03/07 02:19:21;;;;;;;4.07;1.77;;;;;;;0.38;70.46;101628.06;5087195;28;20415;-62
2022/03/07 02:21:48;;;;;;;16.10;3.70;;;;;;;0.37;71.28;101622.06;5087161;28;20047;-62
2022/03/07 02:24:16;;;;;;;5.57;1.52;;;;;;;0.38;71.31;101613.63;5086724;28;20121;-62
2022/03/07 02:26:41;;;;;;;8.80;1.88;;;;;;;0.38;71.96;101608.50;5086305;28;20020;-62
2022/03/07 02:29:08;;;;;;;9.70;2.20;;;;;;;0.40;72.56;101603.47;5086542;28;20506;-62
2022/03/07 02:31:36;;;;;;;9.43;2.50;;;;;;;0.44;71.95;101613.94;5086615;28;20035;-62
2022/03/07 02:34:05;;;;;;;9.27;2.22;;;;;;;0.49;72.79;101602.28;5086673;28;20048;-62
2022/03/07 02:36:30;;;;;;;6.90;1.92;;;;;;;0.54;72.22;101599.97;5086496;28;20051;-62
2022/03/07 02:38:56;;;;;;;5.70;2.83;;;;;;;0.54;73.19;101601.63;5086627;28;20077;-62
2022/03/07 02:41:21;;;;;;;4.45;2.05;;;;;;;0.56;73.79;101597.50;5086614;28;20050;-62
2022/03/07 02:43:47;;;;;;;9.35;3.20;;;;;;;0.61;72.77;101588.38;5085655;28;20516;-62
2022/03/07 02:46:12;;;;;;;7.57;2.92;;;;;;;0.61;73.24;101590.91;5086190;28;20028;-62
2022/03/07 02:48:37;;;;;;;6.50;3.03;;;;;;;0.63;73.64;101586.78;5086423;28;20043;-63
2022/03/07 02:51:03;;;;;;;11.18;3.70;;;;;;;0.65;73.40;101584.28;5086139;28;20543;-62
2022/03/07 02:53:29;;;;;;;8.43;2.88;;;;;;;0.62;74.31;101590.16;5085969;28;20024;-61
2022/03/07 02:55:54;;;;;;;10.85;3.50;;;;;;;0.62;74.67;101592.69;5085683;28;20029;-61
2022/03/07 02:58:20;;;;;;;12.15;3.05;;;;;;;0.65;73.77;101590.31;5085935;28;20537;-61
2022/03/07 03:00:45;;;;;;;9.90;3.58;;;;;;;0.64;74.01;101595.34;5086093;28;20021;-61
2022/03/07 03:03:11;;;;;;;7.18;3.10;;;;;;;0.60;74.17;101592.63;5085944;28;20400;-62
2022/03/07 03:05:36;;;;;;;6.93;3.03;;;;;;;0.59;74.32;101592.53;5085575;28;20413;-62
2022/03/07 03:08:02;;;;;;;8.00;3.30;;;;;;;0.61;73.57;101596.91;5085998;28;20044;-61
2022/03/07 03:10:27;;;;;;;9.38;2.90;;;;;;;0.55;74.42;101596.59;5084313;28;20077;-61
2022/03/07 03:12:52;;;;;;;8.15;2.97;;;;;;;0.61;73.42;101606.25;5085815;28;20024;-62
2022/03/07 03:15:18;;;;;;;10.68;3.47;;;;;;;0.60;73.42;101604.50;5085737;28;20024;-62
2022/03/07 03:17:45;;;;;;;13.07;2.92;;;;;;;0.60;73.16;101614.72;5085852;28;20017;-61
2022/03/07 03:20:13;;;;;;;6.78;2.70;;;;;;;0.58;73.10;101613.75;5085328;28;20024;-61
2022/03/07 03:22:40;;;;;;;8.73;3.25;;;;;;;0.57;72.98;101612.03;5086025;28;20029;-62
2022/03/07 03:25:07;;;;;;;9.68;3.20;;;;;;;0.57;72.66;101612.03;5085338;28;20025;-61
2022/03/07 03:27:32;;;;;;;7.65;2.95;;;;;;;0.55;72.87;101609.38;5084347;28;20027;-61
2022/03/07 03:29:58;;;;;;;12.30;2.83;;;;;;;0.53;72.98;101603.31;5085393;28;20387;-61
2022/03/07 03:32:25;;;;;;;8.07;3.20;;;;;;;0.55;72.86;101596.59;5085646;28;20028;-61
2022/03/07 03:34:50;;;;;;;8.77;3.00;;;;;;;0.52;73.28;101600.66;5085320;28;20491;-62
2022/03/07 03:37:15;;;;;;;9.63;3.00;;;;;;;0.52;73.50;101598.13;5085687;28;20046;-62
2022/03/07 03:39:41;;;;;;;13.23;3.95;;;;;;;0.50;74.03;101592.91;5084338;28;20480;-62
2022/03/07 03:42:06;;;;;;;12.77;2.72;;;;;;;0.48;74.71;101591.94;5085229;28;20043;-62
2022/03/07 03:44:32;;;;;;;8.27;2.78;;;;;;;0.45;75.17;101590.13;5085188;28;20040;-62
2022/03/07 03:46:57;;;;;;;12.32;2.70;;;;;;;0.52;74.60;101595.56;5085290;28;20067;-62
2022/03/07 03:49:22;;;;;;;8.73;2.90;;;;;;;0.55;74.38;101595.72;5085292;28;20032;-62
2022/03/07 03:51:49;;;;;;;4.05;2.28;;;;;;;0.59;74.14;101595.09;5084848;28;20028;-62
2022/03/07 03:54:14;;;;;;;12.80;2.88;;;;;;;0.63;74.04;101591.00;5085119;28;20504;-61
2022/03/07 03:56:40;;;;;;;11.75;3.10;;;;;;;0.67;73.83;101596.34;5085444;28;20020;-62
2022/03/07 03:59:06;;;;;;;8.68;2.05;;;;;;;0.69;74.18;101596.44;5085095;28;20025;-62
2022/03/07 04:01:31;;;;;;;7.47;2.45;;;;;;;0.63;74.46;101583.31;5084852;28;20039;-62
2022/03/07 04:03:57;;;;;;;9.50;2.47;;;;;;;0.64;74.84;101600.44;5085279;28;20103;-62
2022/03/07 04:06:22;;;;;;;8.73;1.98;;;;;;;0.57;75.26;101605.25;5084812;28;20028;-62
2022/03/07 04:09:10;;;;;;;9.63;3.03;;;;;;;0.57;75.95;101604.34;5084694;28;20040;-62
2022/03/07 04:11:35;;;;;;;10.68;3.03;;;;;;;0.58;75.43;101595.88;5084173;28;20036;-62
2022/03/07 04:14:01;;;;;;;11.18;2.55;;;;;;;0.64;75.14;101603.84;5085123;28;20025;-62
2022/03/07 04:16:26;;;;;;;7.20;2.53;;;;;;;0.58;76.31;101600.97;5084801;28;20016;-62
2022/03/07 04:18:51;;;;;;;11.00;2.58;;;;;;;0.57;77.52;101600.13;5085066;28;20028;-62
2022/03/07 04:21:16;;;;;;;11.63;3.05;;;;;;;0.57;78.13;101607.78;5084829;28;20094;-62
2022/03/07 04:23:42;;;;;;;13.82;3.20;;;;;;;0.58;78.28;101594.22;5085090;28;20020;-62
2022/03/07 04:26:07;;;;;;;11.52;3.20;;;;;;;0.62;77.81;101597.81;5084741;28;20054;-62
2022/03/07 04:28:32;;;;;;;10.95;3.13;;;;;;;0.64;77.57;101588.53;5084792;28;20025;-62
2022/03/07 04:30:58;;;;;;;13.27;2.67;;;;;;;0.67;77.14;101591.22;5084459;28;20513;-62
2022/03/07 04:33:23;;;;;;;12.13;2.88;;;;;;;0.73;76.93;101600.91;5084639;28;20031;-62
2022/03/07 04:35:49;;;;;;;14.25;2.75;;;;;;;0.73;77.11;101599.25;5084240;28;20027;-62
2022/03/07 04:38:15;;;;;;;4.85;2.47;;;;;;;0.78;76.53;101599.47;5084770;28;20032;-62
2022/03/07 04:40:40;;;;;;;11.23;2.38;;;;;;;0.74;76.89;101595.88;5084518;28;20028;-62
2022/03/07 04:43:05;;;;;;;13.13;2.67;;;;;;;0.72;77.07;101594.91;5083837;28;20056;-62
2022/03/07 04:45:31;;;;;;;13.20;3.47;;;;;;;0.73;77.35;101594.13;5084634;28;20071;-62
2022/03/07 04:47:56;;;;;;;9.68;2.30;;;;;;;0.77;76.86;101596.84;5084920;28;20017;-62
2022/03/07 04:50:21;;;;;;;13.45;2.42;;;;;;;0.73;77.55;101596.69;5084985;28;20166;-62
2022/03/07 04:52:47;;;;;;;12.80;3.15;;;;;;;0.74;77.45;101595.00;5088733;28;20017;-62
2022/03/07 04:55:12;;;;;;;9.07;2.58;;;;;;;0.73;77.05;101593.25;5088241;28;20499;-61
2022/03/07 04:57:38;;;;;;;6.38;2.53;;;;;;;0.81;76.56;101598.75;5088689;28;20037;-62
2022/03/07 05:00:07;;;;;;;9.02;2.60;;;;;;;0.80;76.72;101602.97;5088559;28;20118;-62
2022/03/07 05:02:33;;;;;;;14.45;3.08;;;;;;;0.78;76.60;101598.59;5088669;28;20043;-62
2022/03/07 05:04:58;;;;;;;11.73;3.00;;;;;;;0.80;76.67;101608.09;5088042;28;20028;-62
2022/03/07 05:07:24;;;;;;;17.35;3.35;;;;;;;0.81;76.51;101602.19;5088443;28;20025;-62
2022/03/07 05:09:49;;;;;;;10.05;3.00;;;;;;;0.78;76.93;101604.59;5088212;28;20032;-62
2022/03/07 05:12:15;;;;;;;9.30;2.70;;;;;;;0.65;77.56;101582.63;5088268;28;20031;-62
2022/03/07 05:14:40;;;;;;;11.13;3.03;;;;;;;0.72;77.37;101591.47;5088287;28;20020;-62
2022/03/07 05:17:05;;;;;;;7.22;2.72;;;;;;;0.72;77.24;101594.03;5087990;28;20016;-62
2022/03/07 05:19:31;;;;;;;13.15;3.03;;;;;;;0.66;77.61;101586.94;5088137;28;20035;-62
2022/03/07 05:21:56;;;;;;;14.13;3.45;;;;;;;0.70;77.00;101590.53;5087783;28;20044;-62
2022/03/07 05:24:21;;;;;;;9.02;3.42;;;;;;;0.68;77.41;101581.91;5087918;28;20025;-62
2022/03/07 05:26:47;;;;;;;13.48;3.35;;;;;;;0.64;77.13;101580.84;5088245;28;20036;-62
2022/03/07 05:29:12;;;;;;;14.45;3.38;;;;;;;0.63;77.78;101583.31;5087994;28;20020;-61
2022/03/07 05:31:37;;;;;;;9.20;3.28;;;;;;;0.59;77.88;101584.88;5087686;28;20089;-61
2022/03/07 05:34:03;;;;;;;6.70;3.10;;;;;;;0.56;78.42;101577.03;5088003;28;20023;-60
2022/03/07 05:36:28;;;;;;;7.65;2.35;;;;;;;0.55;79.03;101581.28;5087548;28;20471;-60
2022/03/07 05:38:53;;;;;;;14.45;2.85;;;;;;;0.55;79.42;101580.38;5087952;28;20021;-61
2022/03/07 05:41:19;;;;;;;14.30;2.90;;;;;;;0.59;79.37;101572.09;5087472;28;20048;-61
2022/03/07 05:43:44;;;;;;;9.60;2.58;;;;;;;0.60;79.83;101568.72;5087479;28;20044;-61
2022/03/07 05:46:10;;;;;;;12.60;2.53;;;;;;;0.62;80.25;101569.69;5087669;28;20345;-61
2022/03/07 05:48:35;;;;;;;8.85;2.58;;;;;;;0.55;80.52;101560.81;5087619;28;20491;-61
2022/03/07 05:51:00;;;;;;;6.82;2.70;;;;;;;0.59;80.81;101560.16;5086980;28;20020;-61
2022/03/07 05:53:25;;;;;;;17.23;2.88;;;;;;;0.62;81.05;101564.59;5087632;28;20111;-62
2022/03/07 05:55:52;;;;;;;18.02;2.60;;;;;;;0.65;81.49;101564.75;5087174;28;20077;-61
2022/03/07 05:58:17;;;;;;;11.55;2.83;;;;;;;0.72;81.64;101555.69;5087391;28;20031;-61
2022/03/07 06:00:43;;;;;;;15.32;2.70;;;;;;;0.76;81.92;101559.28;5087169;28;20024;-62
2022/03/07 06:03:09;;;;;;;9.93;3.03;;;;;;;0.88;81.94;101564.16;5085375;28;20069;-62
2022/03/07 06:05:34;;;;;;;13.77;2.95;;;;;;;0.97;81.98;101562.03;5086781;28;20020;-62
2022/03/07 06:08:00;;;;;;;16.80;3.10;;;;;;;1.09;82.15;101559.19;5087296;28;20024;-62
2022/03/07 06:10:25;;;;;;;6.75;2.72;;;;;;;1.19;82.05;101566.53;5087254;28;20442;-62
2022/03/07 06:12:51;;;;;;;9.20;2.63;;;;;;;1.23;81.96;101567.59;5087265;28;20025;-62
2022/03/07 06:15:16;;;;;;;8.43;2.92;;;;;;;1.29;81.51;101562.75;5087202;28;20030;-62
2022/03/07 06:17:51;;;;;;;13.23;2.67;;;;;;;1.27;80.98;101553.22;5085681;28;20074;-62
2022/03/07 06:20:16;;;;;;;10.55;3.30;;;;;;;1.33;81.28;101566.31;5086717;28;20028;-62
2022/03/07 06:22:41;;;;;;;7.72;3.25;;;;;;;1.33;81.25;101563.75;5087016;28;20400;-62
2022/03/07 06:25:07;;;;;;;11.90;4.10;;;;;;;1.39;81.15;101561.50;5086950;28;20016;-62
2022/03/07 06:27:32;;;;;;;14.00;5.63;;;;;;;1.46;80.80;101565.22;5087016;28;20025;-62
2022/03/07 06:29:58;;;;;;;12.60;3.78;;;;;;;1.44;81.02;101562.59;5086689;28;20032;-61
2022/03/07 06:32:24;;;;;;;9.90;3.22;;;;;;;1.47;81.28;101567.00;5086602;28;20050;-61
2022/03/07 06:34:50;;;;;;;11.25;3.47;;;;;;;1.55;80.74;101563.09;5086571;28;20024;-61
2022/03/07 06:37:16;;;;;;;17.42;3.70;;;;;;;1.60;80.92;101574.44;5086762;28;20017;-61
2022/03/07 06:39:41;;;;;;;9.90;3.78;;;;;;;1.66;81.14;101573.00;5086391;28;20024;-61
2022/03/07 06:42:07;;;;;;;11.32;4.13;;;;;;;1.85;80.63;101567.91;5086303;28;20027;-61
2022/03/07 06:44:33;;;;;;;16.98;5.47;;;;;;;2.12;81.07;101574.25;5086177;28;20051;-61
2022/03/07 06:46:59;;;;;;;13.07;4.97;;;;;;;2.52;80.97;101566.56;5086439;28;20033;-61
2022/03/07 06:49:24;;;;;;;62.92;9.70;;;;;;;3.00;81.42;101562.59;5086467;28;20089;-62
2022/03/07 06:51:50;;;;;;;10.82;3.78;;;;;;;3.67;81.69;101570.38;5085900;28;20107;-61
2022/03/07 06:54:16;;;;;;;7.97;3.05;;;;;;;4.32;82.10;101556.50;5086030;28;20027;-62
2022/03/07 06:56:41;;;;;;;5.72;2.50;;;;;;;5.06;82.27;101559.88;5084894;28;20008;-62
2022/03/07 06:59:07;;;;;;;4.25;3.15;;;;;;;5.83;81.76;101557.97;5086386;28;20032;-62
2022/03/07 07:01:32;;;;;;;9.90;3.53;;;;;;;6.46;80.75;101558.03;5086308;28;20103;-62
2022/03/07 07:03:57;;;;;;;7.05;2.80;;;;;;;7.01;80.09;101556.84;5086275;28;20024;-62
2022/03/07 07:06:23;;;;;;;6.30;2.33;;;;;;;7.47;77.74;101562.25;5085654;28;20029;-62
2022/03/07 07:08:48;;;;;;;7.90;2.67;;;;;;;7.99;76.26;101553.88;5085398;28;20057;-63
2022/03/07 07:11:13;;;;;;;3.88;1.90;;;;;;;8.27;73.12;101559.63;5085504;28;20048;-63
2022/03/07 07:13:39;;;;;;;9.82;2.33;;;;;;;8.52;71.34;101559.22;5085104;28;20026;-63
2022/03/07 07:16:04;;;;;;;4.35;2.10;;;;;;;8.92;71.24;101566.88;5084987;28;20021;-63
2022/03/07 07:18:30;;;;;;;4.75;1.83;;;;;;;9.56;71.55;101560.09;5085000;28;20024;-62
2022/03/07 07:20:55;;;;;;;4.70;2.25;;;;;;;10.21;69.99;101554.88;5084677;28;20407;-63
2022/03/07 07:23:21;;;;;;;4.82;2.20;;;;;;;10.93;67.42;101565.16;5083578;28;20242;-62
2022/03/07 07:25:48;;;;;;;5.38;2.00;;;;;;;11.38;65.99;101563.75;5084648;28;20024;-62
2022/03/07 07:28:14;;;;;;;5.78;2.03;;;;;;;11.87;64.49;101556.22;5084852;28;20052;-63
2022/03/07 07:30:39;;;;;;;4.15;1.48;;;;;;;12.14;60.96;101555.50;5084913;28;20029;-63
2022/03/07 07:33:05;;;;;;;3.15;1.65;;;;;;;12.24;59.28;101560.72;5084910;28;20023;-63
2022/03/07 07:35:30;;;;;;;5.93;1.60;;;;;;;12.31;58.68;101559.03;5084553;28;20020;-63
2022/03/07 07:37:56;;;;;;;5.45;2.13;;;;;;;12.29;58.25;101564.22;5084930;28;20024;-64
2022/03/07 07:40:22;;;;;;;7.57;3.22;;;;;;;12.46;56.78;101559.06;5083209;28;20082;-64
2022/03/07 07:42:47;;;;;;;5.20;2.50;;;;;;;12.84;55.91;101574.75;5084284;28;20066;-64
2022/03/07 07:45:13;;;;;;;6.25;3.10;;;;;;;12.99;55.02;101585.19;5084633;28;20032;-64
2022/03/07 07:47:39;;;;;;;7.18;2.70;;;;;;;13.01;54.56;101582.59;5084497;28;20104;-64
2022/03/07 07:50:05;;;;;;;7.43;3.22;;;;;;;13.10;53.07;101582.59;5084394;28;20032;-64
2022/03/07 07:52:30;;;;;;;4.47;2.45;;;;;;;13.17;51.36;101585.19;5084354;28;20029;-64
2022/03/07 07:54:56;;;;;;;6.65;2.60;;;;;;;13.14;49.95;101583.47;5084474;28;20035;-64
2022/03/07 07:57:21;;;;;;;7.05;2.80;;;;;;;13.40;50.56;101582.59;5084453;28;20016;-63
2022/03/07 07:59:46;;;;;;;11.80;4.35;;;;;;;13.85;50.02;101590.31;5084652;28;20032;-64
2022/03/07 08:02:12;;;;;;;30.88;7.32;;;;;;;13.77;49.17;101592.09;5084364;28;20017;-63
2022/03/07 08:04:37;;;;;;;10.07;3.65;;;;;;;13.91;48.69;101601.63;5084622;28;20544;-63
2022/03/07 08:07:03;;;;;;;7.53;2.80;;;;;;;13.86;46.61;101593.81;5083620;28;20055;-63
2022/03/07 08:09:28;;;;;;;6.03;2.83;;;;;;;13.80;46.38;101599.91;5084276;28;20190;-63
2022/03/07 08:11:53;;;;;;;6.65;2.95;;;;;;;13.71;46.07;101597.31;5084321;28;20035;-63
2022/03/07 08:14:19;;;;;;;12.15;2.92;;;;;;;13.79;45.35;101606.00;5083048;28;20043;-63
2022/03/07 08:16:44;;;;;;;5.65;2.22;;;;;;;13.77;45.24;101607.75;5084134;28;20016;-63
2022/03/07 08:19:10;;;;;;;8.70;2.65;;;;;;;13.60;45.11;101606.06;5084416;28;20028;-63
2022/03/07 08:21:35;;;;;;;5.97;2.40;;;;;;;13.95;45.54;101619.00;5083852;28;20025;-64
2022/03/07 08:24:01;;;;;;;6.30;2.92;;;;;;;14.35;44.76;101620.59;5084245;28;20121;-63
2022/03/07 08:26:26;;;;;;;5.35;2.63;;;;;;;14.77;43.94;101612.53;5086416;28;20104;-63
2022/03/07 08:28:52;;;;;;;6.35;2.47;;;;;;;15.16;43.24;101616.66;5088456;28;20043;-63
2022/03/07 08:31:17;;;;;;;4.25;1.85;;;;;;;15.52;41.53;101625.03;5088392;28;20548;-64
2022/03/07 08:33:43;;;;;;;4.13;2.10;;;;;;;15.57;40.40;101604.94;5088500;28;20016;-64
2022/03/07 08:36:08;;;;;;;5.15;2.00;;;;;;;15.51;41.00;101614.59;5087763;28;20080;-64
2022/03/07 08:38:34;;;;;;;5.93;2.28;;;;;;;15.68;39.90;101623.16;5088168;28;20016;-64
2022/03/07 08:41:00;;;;;;;6.20;2.33;;;;;;;15.78;40.25;101623.03;5088025;28;20039;-64
2022/03/07 08:43:26;;;;;;;5.97;2.42;;;;;;;16.03;39.58;101613.19;5087793;28;20138;-64
2022/03/07 08:45:51;;;;;;;8.75;3.03;;;;;;;16.29;38.67;101606.78;5087799;28;20063;-64
2022/03/07 08:48:16;;;;;;;10.18;2.80;;;;;;;16.41;38.06;101602.22;5088189;28;20110;-64
2022/03/07 08:50:42;;;;;;;7.18;2.40;;;;;;;16.23;37.92;101596.34;5087758;28;20028;-63
2022/03/07 08:53:07;;;;;;;10.40;2.55;;;;;;;16.25;38.09;101593.69;5088042;28;20029;-64
2022/03/07 08:55:33;;;;;;;10.30;2.58;;;;;;;16.53;37.81;101601.19;5087752;28;20040;-64
2022/03/07 08:57:58;;;;;;;5.85;1.90;;;;;;;16.50;37.77;101603.88;5087819;28;20079;-64
2022/03/07 09:00:23;;;;;;;6.45;2.30;;;;;;;16.71;37.75;101594.81;5087979;28;20021;-64
2022/03/07 09:02:49;;;;;;;9.45;2.00;;;;;;;16.73;37.10;101596.53;5088264;28;20382;-63
2022/03/07 09:05:15;;;;;;;8.55;2.38;;;;;;;16.69;36.89;101599.22;5087396;28;20059;-63
2022/03/07 09:07:40;;;;;;;10.45;2.90;;;;;;;16.64;36.23;101603.66;5087753;28;20032;-63
2022/03/07 09:10:06;;;;;;;6.60;2.33;;;;;;;16.57;36.85;101595.88;5087448;28;20039;-63
2022/03/07 09:12:32;;;;;;;5.50;2.60;;;;;;;16.65;36.86;101595.78;5087526;28;20081;-63
2022/03/07 09:15:00;;;;;;;7.70;2.45;;;;;;;16.72;36.35;101592.16;5086127;28;20078;-64
2022/03/07 09:17:26;;;;;;;9.05;2.45;;;;;;;16.58;36.66;101602.84;5087364;28;20030;-63
2022/03/07 09:19:52;;;;;;;7.53;2.78;;;;;;;16.65;36.09;101601.00;5087524;28;20138;-63
2022/03/07 09:22:18;;;;;;;6.22;2.03;;;;;;;16.59;36.73;101607.22;5087369;28;20028;-63
2022/03/07 09:24:44;;;;;;;7.70;2.05;;;;;;;16.55;36.45;101602.91;5087503;28;20025;-64
2022/03/07 09:27:09;;;;;;;8.88;2.25;;;;;;;16.39;37.32;101611.88;5085903;28;20511;-63
2022/03/07 09:29:36;;;;;;;10.68;2.40;;;;;;;16.18;36.63;101606.88;5087355;28;20040;-63
2022/03/07 09:32:03;;;;;;;5.35;2.40;;;;;;;16.01;36.26;101604.47;5087099;28;20024;-64
2022/03/07 09:34:28;;;;;;;6.85;2.60;;;;;;;15.70;36.33;101605.66;5087382;28;20048;-63
2022/03/07 09:36:53;;;;;;;4.30;2.67;;;;;;;15.49;36.17;101612.00;5086765;28;20025;-63
2022/03/07 09:39:19;;;;;;;8.77;2.03;;;;;;;15.27;37.05;101612.16;5087175;28;20078;-63
2022/03/07 09:41:44;;;;;;;7.13;2.63;;;;;;;15.19;36.27;101604.38;5086712;28;20024;-63
2022/03/07 09:44:09;;;;;;;4.03;1.88;;;;;;;15.02;35.31;101607.16;5086845;28;20511;-63
2022/03/07 09:46:36;;;;;;;6.13;2.00;;;;;;;14.63;36.79;101607.41;5086936;28;20028;-64
2022/03/07 09:49:02;;;;;;;2.83;1.42;;;;;;;14.43;36.73;101612.72;5086949;28;20055;-63
2022/03/07 09:51:27;;;;;;;2.40;1.17;;;;;;;14.32;36.02;101610.16;5086515;28;20028;-63
2022/03/07 09:53:52;;;;;;;5.95;1.70;;;;;;;14.33;35.90;101606.69;5086833;28;20054;-64
2022/03/07 09:56:18;;;;;;;4.32;1.30;;;;;;;14.32;34.87;101607.56;5086787;28;20039;-63
2022/03/07 09:58:43;;;;;;;2.92;1.05;;;;;;;14.26;35.28;101608.47;5087049;28;20042;-64
2022/03/07 10:01:17;;;;;;;3.65;1.20;;;;;;;14.31;35.26;101604.09;5086789;28;20037;-63
2022/03/07 10:03:42;;;;;;;4.32;1.80;;;;;;;14.20;35.14;101611.09;5087119;28;20041;-63
2022/03/07 10:06:13;;;;;;;8.70;1.52;;;;;;;14.15;35.28;101613.75;5086041;28;20082;-64
2022/03/07 10:08:38;;;;;;;5.32;1.20;;;;;;;14.07;35.86;101608.53;5086836;28;20103;-64
2022/03/07 10:11:09;;;;;;;2.65;1.15;;;;;;;14.16;36.31;101619.81;5086518;28;20059;-63
2022/03/07 10:13:34;;;;;;;8.27;1.25;;;;;;;14.46;36.35;101623.16;5086508;28;20054;-64
2022/03/07 10:16:03;;;;;;;3.08;1.40;;;;;;;14.98;35.58;101618.53;5085040;28;20021;-63
2022/03/07 10:18:29;;;;;;;8.52;1.73;;;;;;;15.54;34.70;101614.56;5086305;28;20156;-63
2022/03/07 10:20:58;;;;;;;4.78;1.70;;;;;;;15.88;34.36;101623.81;5086223;28;20025;-62
2022/03/07 10:23:25;;;;;;;7.97;1.60;;;;;;;15.99;34.18;101616.72;5085723;28;20039;-63
2022/03/07 10:25:52;;;;;;;4.40;1.27;;;;;;;15.96;33.95;101614.97;5086213;28;20078;-63
2022/03/07 10:28:18;;;;;;;4.65;1.58;;;;;;;15.67;34.39;101616.16;5086350;28;20053;-63
2022/03/07 10:30:44;;;;;;;5.38;1.52;;;;;;;15.25;34.98;101613.94;5085919;28;20025;-63
2022/03/07 10:33:13;;;;;;;4.13;1.42;;;;;;;14.79;35.60;101622.97;5086028;28;20468;-63
2022/03/07 10:35:43;;;;;;;8.73;1.60;;;;;;;14.44;36.37;101619.69;5085358;28;20123;-63
2022/03/07 10:38:14;;;;;;;5.13;1.70;;;;;;;14.31;36.61;101611.94;5085927;28;20028;-62
2022/03/07 10:40:42;;;;;;;7.75;1.65;;;;;;;14.30;37.00;101615.41;5085907;28;20050;-61
2022/03/07 10:43:08;;;;;;;6.72;1.55;;;;;;;14.44;36.75;101628.38;5085527;28;20041;-62
2022/03/07 10:45:53;;;;;;;6.05;1.55;;;;;;;14.78;36.31;101629.06;5085743;28;20024;-62
2022/03/07 10:48:20;;;;;;;5.30;1.80;;;;;;;14.96;35.70;101622.88;5085276;28;20031;-63
2022/03/07 10:50:51;;;;;;;5.75;1.83;;;;;;;15.19;35.36;101620.09;5085343;28;20025;-62
2022/03/07 10:53:18;;;;;;;4.83;1.60;;;;;;;15.53;34.83;101613.69;5085642;28;20028;-62
2022/03/07 10:55:54;;;;;;;5.43;1.52;;;;;;;15.91;34.41;101614.16;5085101;28;20314;-64
2022/03/07 10:58:21;;;;;;;7.20;1.50;;;;;;;16.27;33.84;101608.53;5085499;28;20028;-63
2022/03/07 11:00:57;;;;;;;5.65;1.58;;;;;;;16.57;32.96;101603.75;5085843;28;20025;-63
2022/03/07 11:03:34;;;;;;;8.50;1.42;;;;;;;16.66;32.44;101599.28;5085612;28;20032;-63
2022/03/07 11:06:01;;;;;;;4.45;1.40;;;;;;;16.68;32.67;101600.09;5085349;28;20021;-63
2022/03/07 11:08:28;;;;;;;4.22;1.40;;;;;;;16.79;32.96;101600.78;5085777;28;20127;-62
2022/03/07 11:10:55;;;;;;;4.00;1.65;;;;;;;16.85;32.60;101590.22;5085514;28;20444;-62
2022/03/07 11:13:29;;;;;;;3.28;1.40;;;;;;;16.82;32.91;101587.63;5084353;28;20025;-63
2022/03/07 11:15:57;;;;;;;6.13;1.50;;;;;;;16.93;32.97;101587.47;5085062;28;20024;-63
2022/03/07 11:18:24;;;;;;;5.82;2.05;;;;;;;17.21;32.81;101588.78;5085418;28;20031;-63
2022/03/07 11:20:50;;;;;;;4.88;1.60;;;;;;;17.73;31.89;101596.63;5083683;28;20434;-63
2022/03/07 11:23:17;;;;;;;7.28;1.67;;;;;;;17.98;31.84;101590.00;5085083;28;20098;-64